• Join FlightAware (Why Join?)
  • Login
  • US Flag 
12:01PM EDT


 

Airport Tracker/Info


-or-


 

Live Flight TrackerFlight Track Log ✈ AWE3327 ✈ 30-Apr-2013 ✈ KBUF - KDCA

Flight Track Log - Related Links

Times and Time Zones

All times are in EDT time to prevent confusion due to time zone crossing. See the AWE3327 flight status page for this flight to view local times or setup timezone preferences in your user account.

Time Position Orientation Groundspeed Altitude Reporting Facility
EDT Latitude Longitude Course Direction KTS MPH feet Rate Location/Type
05:41AM 42.9333 -78.7500 174° South 141 162 2,100  Level Buffalo TRACON
05:42AM 42.8833 -78.7667 194° South 216 249 5,000 2,760 Climbing Buffalo TRACON
05:43AM 42.8250 -78.7544 171° South 259 298 7,300 3,660 Climbing Cleveland Center
05:44AM 42.5541 -78.5609 173° South  Level Estimated
05:44AM 42.7497 -78.7369 170° South 270 311 11,100  Level Cleveland Center
05:45AM 42.4576 -78.5188 180° South  Level Estimated
05:45AM 42.6661 -78.7197 171° South 277 319 14,100  Level Cleveland Center
05:46AM 42.3609 -78.4768 174° South  Level Estimated
05:46AM 42.5764 -78.7053 173° South 310 357 17,600  Level Cleveland Center
05:47AM 42.4864 -78.6883 172° South 325 374 20,400 2,700 Climbing Cleveland Center
05:48AM 42.3922 -78.6714 172° South 336 387 23,100 2,520 Climbing Cleveland Center
05:49AM 42.2958 -78.6378 166° South 347 399 25,500 1,920 Climbing Cleveland Center
05:50AM 42.1969 -78.5903 160° South 359 413 27,000 720 Climbing Cleveland Center
05:51AM 42.1047 -78.5514 163° South 376 433 27,000  Level Cleveland Center
05:52AM 42.0036 -78.5014 160° South 387 445 27,000 -240 Level Cleveland Center
05:53AM 41.9047 -78.4517 159° South 387 445 26,600 -600 Descending Cleveland Center
05:54AM 41.8081 -78.4075 161° South 387 445 25,800 -840 Descending Cleveland Center
05:55AM 41.7092 -78.3608 161° South 382 440 25,000 -420 Descending Cleveland Center
05:56AM 41.6028 -78.3117 161° South 376 433 25,000  Level New York Center
05:57AM 41.5036 -78.2672 161° South 376 433 25,000  Level New York Center
05:58AM 41.3944 -78.2136 160° South 376 433 25,000  Level New York Center
05:59AM 41.2972 -78.1669 160° South 376 433 25,000  Level New York Center
06:00AM 41.2000 -78.1231 161° South 376 433 25,000  Level New York Center
06:01AM 41.1008 -78.0767 161° South 376 433 25,000  Level New York Center
06:02AM 41.0014 -78.0328 162° South 376 433 25,000  Level New York Center
06:03AM 40.9067 -77.9761 156° South 376 433 25,000 -360 Level New York Center
06:04AM 40.8172 -77.9064 149° Southeast 376 433 24,400 -660 Descending New York Center
06:05AM 40.7278 -77.8339 148° Southeast 376 433 23,700 -960 Descending New York Center
06:06AM 40.6400 -77.7647 149° Southeast 376 433 22,500 -1,320 Descending New York Center
06:07AM 40.5544 -77.6986 150° Southeast 370 426 21,100 -1,440 Descending New York Center
06:08AM 40.4683 -77.6356 151° Southeast 365 420 19,700 -1,080 Descending New York Center
06:09AM 40.3925 -77.5761 149° Southeast 359 413 19,000 -360 Descending New York Center
06:10AM 40.3008 -77.5044 149° Southeast 359 413 19,000 -300 Level New York Center
06:11AM 40.2247 -77.4481 150° Southeast 354 407 18,400 -540 Descending New York Center
06:12AM 40.1347 -77.3797 150° Southeast 349 402 18,000 -240 Descending New York Center
06:13AM 40.0608 -77.3239 150° Southeast 343 395 18,000  Level New York Center
06:14AM 39.9686 -77.2556 150° Southeast 343 395 18,000  Level New York Center
06:15AM 39.8947 -77.1972 149° Southeast 343 395 18,000 -60 Level New York Center
06:16AM 39.8025 -77.1294 151° Southeast 343 395 17,900 -660 Descending New York Center
06:18AM 39.6667 -77.0167 147° Southeast 339 390 16,200 -1,020 Descending Potomac TRACON
06:19AM 39.6000 -76.9500 142° Southeast 331 381 15,200 -1,020 Descending Potomac TRACON
06:20AM 39.5333 -76.8667 136° Southeast 327 376 14,300 -1,020 Descending Potomac TRACON
06:21AM 39.4667 -76.8000 142° Southeast 315 362 13,300 -1,020 Descending Potomac TRACON
06:22AM 39.4000 -76.7333 142° Southeast 314 361 12,400 -720 Descending Potomac TRACON
06:22AM 39.3333 -76.7000 159° South 305 351 12,000 -300 Descending Potomac TRACON
06:23AM 39.2667 -76.6500 150° Southeast 307 353 11,900 -660 Descending Potomac TRACON
06:24AM 39.2000 -76.6167 159° South 306 352 10,800 -1,020 Descending Potomac TRACON
06:25AM 39.1333 -76.7000 224° Southwest 295 339 10,000 -480 Descending Potomac TRACON
06:26AM 39.0833 -76.7667 226° Southwest 295 339 10,000 -60 Level Potomac TRACON
06:27AM 39.0333 -76.8333 226° Southwest 295 339 9,900 -1,080 Descending Potomac TRACON
06:28AM 38.9667 -76.9000 218° Southwest 290 334 8,000 -1,800 Descending Potomac TRACON
06:29AM 38.9167 -76.9500 218° Southwest 284 327 6,500 -1,020 Descending Potomac TRACON
06:30AM 38.8333 -76.9500 180° South 239 275 6,000 -480 Descending Potomac TRACON
06:31AM 38.7833 -76.9500 180° South 207 238 5,600 -960 Descending Potomac TRACON
06:32AM 38.7333 -76.9333 165° South 198 228 4,200 -1,440 Descending Potomac TRACON
06:33AM 38.6667 -76.9333 180° South 196 226 2,800 -900 Descending Potomac TRACON
06:34AM 38.6333 -76.9500 201° Southwest 217 250 2,500 -180 Descending Potomac TRACON
06:35AM 38.6500 -77.0167 288° West 208 239 2,500  Level Potomac TRACON
06:36AM 38.7167 -77.0167 360° North 188 216 2,500 -420 Level Potomac TRACON
06:37AM 38.7667 -77.0333 345° North 184 212 1,700 -840 Descending Potomac TRACON